Time;durP1;ratioP1;P1;durP2;ratioP2;P2;SDS_P1;SDS_P2;PMS_P1;PMS_P2;Temp;Humidity;BMP_temperature;BMP_pressure;BME280_temperature;BME280_humidity;BME280_pressure;Samples;Min_cycle;Max_cycle;Signal;HPM_P1;HPM_P2
2022/05/24 00:01:05;;;;;;;;;;;;;;;24.83;17.86;100281.59;5015375;28;20272;-71
2022/05/24 00:03:31;;;;;;;;;;;;;;;24.82;17.63;100277.25;5015225;28;19972;-70
2022/05/24 00:05:56;;;;;;;;;;;;;;;24.82;17.75;100279.97;5015266;28;19940;-70
2022/05/24 00:08:22;;;;;;;;;;;;;;;24.81;17.94;100278.31;5015276;28;20284;-70
2022/05/24 00:10:47;;;;;;;;;;;;;;;24.81;17.67;100280.25;5015032;28;19917;-70
2022/05/24 00:13:13;;;;;;;;;;;;;;;24.80;17.75;100273.97;5015110;28;20288;-70
2022/05/24 00:15:38;;;;;;;;;;;;;;;24.80;17.92;100281.34;5015004;28;19917;-70
2022/05/24 00:18:03;;;;;;;;;;;;;;;24.79;17.67;100283.28;5014826;28;19917;-70
2022/05/24 00:20:37;;;;;;;;;;;;;;;24.81;18.02;100288.44;5014957;28;20012;-71
2022/05/24 00:23:02;;;;;;;;;;;;;;;24.79;17.99;100283.28;5014942;28;19918;-71
2022/05/24 00:25:27;;;;;;;;;;;;;;;24.78;17.94;100284.34;5014510;28;19923;-70
2022/05/24 00:27:53;;;;;;;;;;;;;;;24.78;18.00;100278.91;5014837;28;19917;-70
2022/05/24 00:30:18;;;;;;;;;;;;;;;24.79;18.32;100280.53;5013678;28;20003;-70
2022/05/24 00:32:44;;;;;;;;;;;;;;;24.79;18.35;100277.00;5015059;28;20117;-70
2022/05/24 00:35:09;;;;;;;;;;;;;;;24.80;18.36;100271.25;5014453;28;19918;-70
2022/05/24 00:37:36;;;;;;;;;;;;;;;24.81;18.13;100278.31;5014599;28;19923;-70
2022/05/24 00:40:02;;;;;;;;;;;;;;;24.81;18.09;100272.06;5014573;28;19949;-70
2022/05/24 00:42:27;;;;;;;;;;;;;;;24.81;18.34;100272.88;5014569;28;20045;-70
2022/05/24 00:45:13;;;;;;;;;;;;;;;24.80;18.33;100275.88;4999178;28;19926;-70
2022/05/24 00:47:43;;;;;;;;;;;;;;;24.79;18.34;100272.34;5033640;28;19924;-70
2022/05/24 00:50:16;;;;;;;;;;;;;;;24.78;18.38;100273.44;5033734;28;20391;-70
2022/05/24 00:53:05;;;;;;;;;;;;;;;24.78;18.51;100278.91;5016565;28;19929;-70
2022/05/24 00:55:31;;;;;;;;;;;;;;;24.77;18.59;100281.91;5016145;28;19949;-70
2022/05/24 00:58:15;;;;;;;;;;;;;;;24.78;18.36;100280.81;5016518;28;19982;-70
2022/05/24 01:00:40;;;;;;;;;;;;;;;24.77;18.58;100282.75;5034588;28;19940;-70
2022/05/24 01:03:06;;;;;;;;;;;;;;;24.76;18.49;100281.09;5034021;28;20368;-70
2022/05/24 01:05:32;;;;;;;;;;;;;;;24.77;18.50;100288.22;5033655;28;19972;-70
2022/05/24 01:07:57;;;;;;;;;;;;;;;24.77;18.41;100296.41;5034037;28;19964;-70
2022/05/24 01:10:49;;;;;;;;;;;;;;;24.77;18.56;100293.69;5033885;28;20020;-70
2022/05/24 01:13:21;;;;;;;;;;;;;;;24.78;18.55;100294.47;5031830;28;19924;-71
2022/05/24 01:15:46;;;;;;;;;;;;;;;24.78;18.48;100294.47;5015862;28;19948;-70
2022/05/24 01:18:12;;;;;;;;;;;;;;;24.77;18.56;100287.38;5016070;28;19987;-70
2022/05/24 01:20:37;;;;;;;;;;;;;;;24.77;18.39;100282.75;5033807;28;19917;-70
2022/05/24 01:23:03;;;;;;;;;;;;;;;24.77;18.65;100293.69;5033480;28;19924;-70
2022/05/24 01:25:37;;;;;;;;;;;;;;;24.76;18.68;100289.31;5033443;28;19917;-70
2022/05/24 01:28:06;;;;;;;;;;;;;;;24.74;18.42;100292.31;5033487;28;19917;-70
2022/05/24 01:30:31;;;;;;;;;;;;;;;24.74;18.48;100295.03;5033155;28;19932;-70
2022/05/24 01:38:24;;;;;;;;;;;;;;;24.75;18.66;100293.16;5033723;28;19924;-70
2022/05/24 01:40:49;;;;;;;;;;;;;;;24.75;18.56;100290.41;5015992;28;19917;-70
2022/05/24 01:43:16;;;;;;;;;;;;;;;24.75;18.61;100290.41;5019667;28;19949;-70
2022/05/24 01:45:43;;;;;;;;;;;;;;;24.74;18.59;100294.25;5029281;28;19936;-70
2022/05/24 01:48:12;;;;;;;;;;;;;;;24.75;18.39;100295.88;5000316;28;19917;-71
2022/05/24 01:50:37;;;;;;;;;;;;;;;24.74;18.61;100303.25;5000192;28;19944;-70
2022/05/24 01:53:05;;;;;;;;;;;;;;;24.74;18.61;100291.50;5017766;28;19921;-70
2022/05/24 01:55:34;;;;;;;;;;;;;;;24.74;18.50;100295.03;5018037;28;19918;-70
2022/05/24 01:58:01;;;;;;;;;;;;;;;24.75;18.28;100290.41;4999745;28;19943;-70
2022/05/24 02:00:26;;;;;;;;;;;;;;;24.76;18.30;100296.69;5000063;28;19922;-70
2022/05/24 02:02:52;;;;;;;;;;;;;;;24.76;18.54;100286.56;5017499;28;20005;-70
2022/05/24 02:05:39;;;;;;;;;;;;;;;24.75;18.39;100287.69;5017538;28;19933;-70
2022/05/24 02:08:07;;;;;;;;;;;;;;;24.72;18.54;100285.53;5017175;28;19918;-71
2022/05/24 02:10:34;;;;;;;;;;;;;;;24.73;18.50;100287.13;5017002;28;20383;-70
2022/05/24 02:13:00;;;;;;;;;;;;;;;24.72;18.66;100286.31;5000191;28;19917;-70
2022/05/24 02:15:27;;;;;;;;;;;;;;;24.72;18.66;100288.25;5000047;28;19964;-70
2022/05/24 02:17:54;;;;;;;;;;;;;;;24.73;18.56;100276.19;5000307;28;19965;-70
2022/05/24 02:20:30;;;;;;;;;;;;;;;24.73;18.39;100287.13;4999647;28;19999;-70
2022/05/24 02:22:55;;;;;;;;;;;;;;;24.73;18.42;100298.06;5017194;28;19964;-70
2022/05/24 02:25:25;;;;;;;;;;;;;;;24.72;18.48;100288.25;5017105;28;19925;-70
2022/05/24 02:27:51;;;;;;;;;;;;;;;24.72;18.63;100290.97;5016717;28;19948;-70
2022/05/24 02:30:17;;;;;;;;;;;;;;;24.72;18.56;100289.06;5016442;28;19921;-70
2022/05/24 02:32:43;;;;;;;;;;;;;;;24.73;18.70;100287.13;5017047;28;19917;-71
2022/05/24 02:35:08;;;;;;;;;;;;;;;24.71;18.50;100292.88;4999351;28;19929;-71
2022/05/24 02:37:33;;;;;;;;;;;;;;;24.72;18.47;100301.91;5017638;28;20009;-70
2022/05/24 02:42:42;;;;;;;;;;;;;;;24.71;18.61;100301.06;5016876;28;19926;-70
2022/05/24 02:45:08;;;;;;;;;;;;;;;24.72;18.54;100301.91;5020025;28;20284;-70
2022/05/24 02:47:33;;;;;;;;;;;;;;;24.72;18.83;100301.91;5036501;28;19917;-70
2022/05/24 02:49:58;;;;;;;;;;;;;;;24.72;18.70;100304.66;5036154;28;19924;-70
2022/05/24 02:52:24;;;;;;;;;;;;;;;24.71;18.70;100298.34;5035882;28;20010;-70
2022/05/24 02:54:49;;;;;;;;;;;;;;;24.72;18.87;100301.91;5036156;28;19917;-70
2022/05/24 02:57:14;;;;;;;;;;;;;;;24.72;18.84;100312.84;5035943;28;19921;-70
2022/05/24 02:59:39;;;;;;;;;;;;;;;24.71;18.79;100316.66;5035977;28;19985;-70
2022/05/24 03:02:05;;;;;;;;;;;;;;;24.74;18.80;100310.63;5036295;28;19917;-70
2022/05/24 03:04:30;;;;;;;;;;;;;;;24.74;18.63;100313.38;5018596;28;19921;-70
2022/05/24 03:09:39;;;;;;;;;;;;;;;24.80;18.82;100314.13;5044546;28;19928;-70
2022/05/24 03:14:50;;;;;;;;;;;;;;;24.88;18.59;100311.63;5036664;28;19924;-70
2022/05/24 03:17:16;;;;;;;;;;;;;;;24.92;18.63;100315.44;5036091;28;19917;-70
2022/05/24 03:19:41;;;;;;;;;;;;;;;24.98;18.65;100318.13;5036334;28;19921;-70
2022/05/24 03:22:09;;;;;;;;;;;;;;;25.04;18.81;100316.97;5035776;28;20367;-70
2022/05/24 03:24:34;;;;;;;;;;;;;;;25.05;18.96;100321.34;5035734;28;19918;-70
2022/05/24 03:26:59;;;;;;;;;;;;;;;25.06;18.83;100317.47;5035794;28;19929;-70
2022/05/24 03:29:25;;;;;;;;;;;;;;;25.12;18.84;100324.56;5035218;28;20360;-71
2022/05/24 03:31:51;;;;;;;;;;;;;;;25.18;18.91;100320.69;5035749;28;20052;-70
2022/05/24 03:34:16;;;;;;;;;;;;;;;25.16;18.62;100325.59;5035581;28;19917;-70
2022/05/24 03:36:41;;;;;;;;;;;;;;;25.21;18.72;100324.75;5035525;28;20324;-70
2022/05/24 03:39:07;;;;;;;;;;;;;;;25.29;18.70;100338.66;5035467;28;19971;-70
2022/05/24 03:41:32;;;;;;;;;;;;;;;25.31;18.73;100324.69;5035228;28;20339;-70
2022/05/24 03:43:57;;;;;;;;;;;;;;;25.34;18.65;100323.31;5035368;28;19970;-70
2022/05/24 03:46:23;;;;;;;;;;;;;;;25.36;18.91;100321.09;5035252;28;19921;-70
2022/05/24 03:48:48;;;;;;;;;;;;;;;25.39;18.79;100325.97;5035195;28;19924;-71
2022/05/24 03:51:13;;;;;;;;;;;;;;;25.43;18.76;100327.84;5035314;28;19933;-70
2022/05/24 03:53:39;;;;;;;;;;;;;;;25.46;18.89;100329.22;5035557;28;20386;-70
2022/05/24 03:56:04;;;;;;;;;;;;;;;25.49;18.88;100328.59;5035622;28;19917;-70
2022/05/24 03:58:29;;;;;;;;;;;;;;;25.53;18.63;100332.41;5017590;28;20363;-70
2022/05/24 04:00:55;;;;;;;;;;;;;;;25.55;18.81;100322.00;5018134;28;19924;-70
2022/05/24 04:03:21;;;;;;;;;;;;;;;25.56;18.75;100326.38;5035457;28;19979;-70
2022/05/24 04:05:47;;;;;;;;;;;;;;;25.56;18.92;100329.09;5034525;28;19916;-71
2022/05/24 04:08:12;;;;;;;;;;;;;;;25.57;19.02;100333.47;5035727;28;19924;-70
2022/05/24 04:10:38;;;;;;;;;;;;;;;25.54;19.10;100325.81;5017583;28;20284;-71
2022/05/24 04:13:03;;;;;;;;;;;;;;;25.44;19.37;100334.13;5036309;28;19959;-70
2022/05/24 04:15:28;;;;;;;;;;;;;;;25.52;19.47;100330.78;5035927;28;20009;-71
2022/05/24 04:17:55;;;;;;;;;;;;;;;25.57;19.15;100329.91;5036496;28;20304;-71
2022/05/24 04:20:21;;;;;;;;;;;;;;;25.61;19.15;100323.56;5035441;28;19917;-70
2022/05/24 04:22:46;;;;;;;;;;;;;;;25.67;18.91;100336.09;5035819;28;20008;-70
2022/05/24 04:25:20;;;;;;;;;;;;;;;25.69;18.84;100335.81;5113101;27;19916;-68
2022/05/24 04:27:45;;;;;;;;;;;;;;;25.73;18.89;100336.03;5112843;28;19989;-68
2022/05/24 04:30:11;;;;;;;;;;;;;;;25.72;18.98;100335.22;5112209;28;20297;-69
2022/05/24 04:32:36;;;;;;;;;;;;;;;25.77;18.89;100337.09;5111752;28;19916;-69
2022/05/24 04:35:02;;;;;;;;;;;;;;;25.76;19.05;100340.94;5111981;28;19916;-69
2022/05/24 04:37:27;;;;;;;;;;;;;;;25.77;18.89;100345.31;5144762;27;20378;-69
2022/05/24 04:39:52;;;;;;;;;;;;;;;25.75;19.01;100331.91;5111516;28;19916;-69
2022/05/24 04:42:21;;;;;;;;;;;;;;;25.77;18.82;100340.66;5111730;28;19965;-71
2022/05/24 04:45:07;;;;;;;;;;;;;;;25.79;18.79;100335.69;5110918;28;19942;-70
2022/05/24 04:47:33;;;;;;;;;;;;;;;25.83;18.57;100330.44;5089985;28;20007;-70
2022/05/24 04:49:59;;;;;;;;;;;;;;;25.86;18.48;100336.16;5090795;28;20342;-71
2022/05/24 04:52:25;;;;;;;;;;;;;;;25.83;18.62;100330.44;5090491;28;20005;-76
2022/05/24 04:54:51;;;;;;;;;;;;;;;25.84;18.40;100332.09;5090796;28;20014;-76
2022/05/24 04:57:16;;;;;;;;;;;;;;;25.85;18.51;100331.81;5090251;28;20384;-75
2022/05/24 04:59:41;;;;;;;;;;;;;;;25.91;18.50;100332.53;5090964;28;20228;-76
2022/05/24 05:02:07;;;;;;;;;;;;;;;25.92;18.28;100331.41;5089757;28;19952;-75
2022/05/24 05:04:32;;;;;;;;;;;;;;;25.92;18.19;100325.94;5122861;28;19964;-75
2022/05/24 05:06:57;;;;;;;;;;;;;;;25.96;18.29;100332.50;5089661;28;20367;-75
2022/05/24 05:09:23;;;;;;;;;;;;;;;25.98;18.01;100332.22;5090663;28;19916;-76
2022/05/24 05:11:48;;;;;;;;;;;;;;;25.96;17.94;100329.78;5089795;28;20273;-75
2022/05/24 05:14:13;;;;;;;;;;;;;;;25.98;18.09;100332.22;5090277;28;20317;-75
2022/05/24 05:16:38;;;;;;;;;;;;;;;26.01;18.17;100340.66;5089902;28;19916;-76
2022/05/24 05:19:05;;;;;;;;;;;;;;;26.04;17.84;100331.03;5089768;28;19943;-75
2022/05/24 05:21:33;;;;;;;;;;;;;;;26.00;17.88;100330.81;5089748;28;19917;-75
2022/05/24 05:23:59;;;;;;;;;;;;;;;26.00;17.92;100344.50;5088929;28;20020;-75
2022/05/24 05:26:24;;;;;;;;;;;;;;;26.04;17.87;100340.09;5090477;28;19928;-74
2022/05/24 05:28:49;;;;;;;;;;;;;;;26.00;17.95;100339.03;5089562;28;19920;-74
2022/05/24 05:31:19;;;;;;;;;;;;;;;26.03;17.80;100335.72;5122407;28;19924;-74
2022/05/24 05:33:45;;;;;;;;;;;;;;;26.12;17.86;100343.28;5089552;28;19916;-74
2022/05/24 05:36:13;;;;;;;;;;;;;;;26.13;17.91;100342.16;5078904;28;19920;-74
2022/05/24 05:38:45;;;;;;;;;;;;;;;26.13;17.75;100340.25;5108401;28;19970;-74
2022/05/24 05:41:10;;;;;;;;;;;;;;;26.14;17.89;100341.06;5075377;28;19921;-75
2022/05/24 05:43:35;;;;;;;;;;;;;;;26.18;17.83;100333.88;5076102;28;19966;-75
2022/05/24 05:46:03;;;;;;;;;;;;;;;26.17;18.11;100343.22;5092534;28;19915;-75
2022/05/24 05:48:29;;;;;;;;;;;;;;;26.20;18.35;100340.72;5116034;28;19915;-74
2022/05/24 05:50:54;;;;;;;;;;;;;;;26.17;18.46;100351.44;5115885;28;19923;-75
2022/05/24 05:53:19;;;;;;;;;;;;;;;26.20;18.40;100350.84;5116897;28;19916;-74
2022/05/24 05:55:44;;;;;;;;;;;;;;;26.21;18.39;100345.06;5116819;28;19916;-74
2022/05/24 05:58:10;;;;;;;;;;;;;;;26.22;18.23;100337.69;5115062;28;19919;-78
2022/05/24 06:00:35;;;;;;;;;;;;;;;26.19;18.28;100346.47;5116472;28;20274;-74
2022/05/24 06:03:01;;;;;;;;;;;;;;;26.25;18.00;100348.06;5115843;28;20304;-75
2022/05/24 06:05:29;;;;;;;;;;;;;;;26.23;18.30;100347.50;5116017;28;19967;-74
2022/05/24 06:07:55;;;;;;;;;;;;;;;26.22;18.25;100343.97;5114767;28;19959;-75
2022/05/24 06:10:20;;;;;;;;;;;;;;;26.25;18.48;100337.09;5115523;28;19971;-75
2022/05/24 06:12:45;;;;;;;;;;;;;;;26.34;18.05;100346.28;5115693;28;19916;-75
2022/05/24 06:15:10;;;;;;;;;;;;;;;26.39;18.35;100343.47;5115379;28;19919;-76
2022/05/24 06:17:45;;;;;;;;;;;;;;;26.36;18.17;100346.78;5116314;28;20010;-75
2022/05/24 06:20:11;;;;;;;;;;;;;;;26.38;18.37;100350.06;5115760;28;19920;-75
2022/05/24 06:22:36;;;;;;;;;;;;;;;26.38;18.22;100344.56;5115947;28;19916;-76
2022/05/24 06:25:02;;;;;;;;;;;;;;;26.48;18.09;100342.81;5113834;28;19931;-78
2022/05/24 06:27:27;;;;;;;;;;;;;;;26.41;18.27;100344.00;5115595;28;19916;-74
2022/05/24 06:29:52;;;;;;;;;;;;;;;26.36;18.31;100348.72;5115344;28;19916;-75
2022/05/24 06:32:17;;;;;;;;;;;;;;;26.38;18.33;100341.84;5115477;28;19916;-74
2022/05/24 06:34:43;;;;;;;;;;;;;;;26.39;18.21;100348.94;5115364;28;20343;-75
2022/05/24 06:37:08;;;;;;;;;;;;;;;26.34;18.30;100343.53;5115537;28;19922;-74
2022/05/24 06:39:33;;;;;;;;;;;;;;;26.28;18.32;100346.63;5114418;28;19938;-75
2022/05/24 06:41:58;;;;;;;;;;;;;;;26.37;18.04;100348.44;5115342;28;20023;-73
2022/05/24 06:44:24;;;;;;;;;;;;;;;26.18;18.31;100344.84;5115320;28;19985;-73
2022/05/24 06:46:49;;;;;;;;;;;;;;;26.37;17.99;100350.34;5099605;28;19939;-73
2022/05/24 06:49:14;;;;;;;;;;;;;;;26.27;18.13;100353.22;5094300;28;19969;-73
2022/05/24 06:51:40;;;;;;;;;;;;;;;26.12;18.16;100348.75;5094791;28;20264;-73
2022/05/24 06:54:05;;;;;;;;;;;;;;;25.97;18.40;100355.22;5094612;28;19977;-73
2022/05/24 06:56:30;;;;;;;;;;;;;;;25.99;18.46;100348.38;5094874;28;19980;-72
2022/05/24 07:04:23;;;;;;;;;;;;;;;26.00;18.38;100347.25;5093953;28;20014;-73
2022/05/24 07:06:49;;;;;;;;;;;;;;;26.18;18.30;100351.16;5094653;28;19920;-70
2022/05/24 07:09:14;;;;;;;;;;;;;;;26.01;18.41;100348.88;5094610;28;19969;-70
2022/05/24 07:11:39;;;;;;;;;;;;;;;26.12;18.03;100356.97;5094637;28;19916;-71
2022/05/24 07:14:04;;;;;;;;;;;;;;;26.16;18.10;100355.28;5092853;28;19916;-71
2022/05/24 07:16:30;;;;;;;;;;;;;;;26.10;18.04;100360.00;5094425;28;20394;-71
2022/05/24 07:18:55;;;;;;;;;;;;;;;25.95;18.31;100350.03;5095037;28;19916;-72
2022/05/24 07:21:20;;;;;;;;;;;;;;;25.88;18.24;100356.97;5094884;28;19958;-71
2022/05/24 07:23:46;;;;;;;;;;;;;;;26.55;17.48;100359.72;5093800;28;19970;-71
2022/05/24 07:26:15;;;;;;;;;;;;;;;26.56;17.71;100353.94;5094332;28;19916;-71
2022/05/24 07:28:41;;;;;;;;;;;;;;;26.54;17.69;100345.16;5094648;28;20304;-71
2022/05/24 07:31:06;;;;;;;;;;;;;;;26.58;17.67;100348.16;5094549;28;19916;-71
2022/05/24 07:33:32;;;;;;;;;;;;;;;26.48;17.46;100351.03;5094216;28;20386;-72
2022/05/24 07:35:57;;;;;;;;;;;;;;;26.62;17.48;100346.47;5092945;28;19924;-71
2022/05/24 07:38:22;;;;;;;;;;;;;;;26.61;17.25;100339.31;5094054;28;19916;-71
2022/05/24 07:46:16;;;;;;;;;;;;;;;26.46;17.33;100342.28;5102014;28;19923;-72
2022/05/24 07:48:41;;;;;;;;;;;;;;;26.39;17.38;100337.19;5114431;28;19920;-72
2022/05/24 07:51:06;;;;;;;;;;;;;;;26.39;17.47;100338.00;5114218;28;19916;-72
2022/05/24 07:53:32;;;;;;;;;;;;;;;26.45;17.47;100343.41;5114545;28;20040;-71
2022/05/24 07:55:57;;;;;;;;;;;;;;;26.39;17.45;100331.72;5113958;28;20285;-72
2022/05/24 07:58:23;;;;;;;;;;;;;;;26.48;17.37;100340.88;5114249;28;19919;-70
2022/05/24 08:00:48;;;;;;;;;;;;;;;26.57;17.16;100338.28;5115379;28;19916;-71
2022/05/24 08:03:14;;;;;;;;;;;;;;;26.64;16.90;100330.53;5118213;28;20384;-70
2022/05/24 08:05:39;;;;;;;;;;;;;;;26.68;16.94;100323.38;5115453;28;19920;-69
2022/05/24 08:08:05;;;;;;;;;;;;;;;26.49;16.86;100330.72;5116456;28;19922;-68
2022/05/24 08:10:30;;;;;;;;;;;;;;;26.58;16.93;100334.47;5111955;28;19919;-69
2022/05/24 08:12:56;;;;;;;;;;;;;;;26.69;16.78;100332.41;5113497;28;19942;-69
2022/05/24 08:15:23;;;;;;;;;;;;;;;26.62;16.67;100324.56;5114016;28;19920;-67
2022/05/24 08:17:49;;;;;;;;;;;;;;;26.66;16.66;100322.84;5116307;28;19955;-69
2022/05/24 08:20:14;;;;;;;;;;;;;;;26.83;16.34;100327.78;5114507;28;20366;-68
2022/05/24 08:22:40;;;;;;;;;;;;;;;26.85;16.27;100328.28;5113422;28;19916;-68
2022/05/24 08:25:05;;;;;;;;;;;;;;;26.89;16.27;100326.59;5114866;28;19923;-68
2022/05/24 08:27:32;;;;;;;;;;;;;;;26.98;16.11;100326.75;5114054;28;19919;-67
2022/05/24 08:29:57;;;;;;;;;;;;;;;27.03;15.74;100323.06;5113630;28;19916;-68
2022/05/24 08:32:22;;;;;;;;;;;;;;;26.93;15.84;100330.38;5113591;28;19923;-68
2022/05/24 08:34:48;;;;;;;;;;;;;;;27.01;15.76;100330.78;5113439;28;19915;-68
2022/05/24 08:37:13;;;;;;;;;;;;;;;27.01;15.54;100330.78;5114422;28;20022;-67
2022/05/24 08:39:38;;;;;;;;;;;;;;;26.98;15.47;100324.81;5113652;28;20366;-68
2022/05/24 08:42:07;;;;;;;;;;;;;;;27.02;15.50;100327.75;5113471;28;20309;-68
2022/05/24 08:50:20;;;;;;;;;;;;;;;26.96;15.58;100334.47;5092341;28;19965;-68
2022/05/24 08:53:05;;;;;;;;;;;;;;;26.99;15.68;100328.34;5091589;28;19916;-68
2022/05/24 08:55:30;;;;;;;;;;;;;;;27.06;15.61;100334.28;5093185;28;19923;-68
2022/05/24 08:57:56;;;;;;;;;;;;;;;27.11;15.59;100325.16;5091626;28;19916;-68
2022/05/24 09:00:24;;;;;;;;;;;;;;;27.09;15.30;100327.38;5091965;28;19920;-69
2022/05/24 09:02:49;;;;;;;;;;;;;;;27.03;15.53;100332.13;5092902;28;19916;-68
2022/05/24 09:05:19;;;;;;;;;;;;;;;27.08;15.48;100331.22;5092278;28;19916;-70
2022/05/24 09:08:05;;;;;;;;;;;;;;;27.12;15.44;100319.34;5092866;28;19923;-68
2022/05/24 09:10:45;;;;;;;;;;;;;;;27.24;15.77;100327.13;5051546;28;19917;-68
2022/05/24 09:13:16;;;;;;;;;;;;;;;27.22;15.42;100328.53;5054299;28;19944;-69
2022/05/24 09:15:48;;;;;;;;;;;;;;;27.29;15.43;100323.50;5053988;28;19964;-68
2022/05/24 09:18:17;;;;;;;;;;;;;;;26.88;16.00;100324.16;5053730;28;19924;-68
2022/05/24 09:20:43;;;;;;;;;;;;;;;27.16;15.44;100334.13;5053786;28;19920;-68
2022/05/24 09:23:11;;;;;;;;;;;;;;;27.22;15.51;100329.34;5053689;28;19933;-68
2022/05/24 09:25:36;;;;;;;;;;;;;;;27.25;15.51;100337.00;5037111;28;20007;-69
2022/05/24 09:28:02;;;;;;;;;;;;;;;26.89;15.77;100323.88;5054164;28;20059;-69
2022/05/24 09:30:30;;;;;;;;;;;;;;;27.14;15.39;100314.38;5055975;28;20280;-68
2022/05/24 09:33:14;;;;;;;;;;;;;;;27.24;15.59;100313.41;5061796;28;19917;-68
2022/05/24 09:35:39;;;;;;;;;;;;;;;26.91;15.77;100318.09;5057020;28;19924;-68
2022/05/24 09:38:08;;;;;;;;;;;;;;;27.14;15.38;100308.91;5038787;28;19916;-68
2022/05/24 09:40:45;;;;;;;;;;;;;;;27.41;15.43;100307.38;5055167;28;19916;-68
2022/05/24 09:43:14;;;;;;;;;;;;;;;27.29;15.42;100309.78;5054434;28;19921;-73
2022/05/24 09:45:39;;;;;;;;;;;;;;;27.46;15.36;100304.53;5053915;28;19917;-73
2022/05/24 09:48:05;;;;;;;;;;;;;;;27.48;15.40;100302.28;5063055;28;19979;-74
2022/05/24 09:50:31;;;;;;;;;;;;;;;27.52;15.35;100303.31;5074729;28;19963;-73
2022/05/24 09:53:02;;;;;;;;;;;;;;;27.47;15.48;100300.66;5075867;28;19966;-73
2022/05/24 09:55:28;;;;;;;;;;;;;;;27.54;15.45;100301.09;5075717;28;20027;-75
2022/05/24 09:57:53;;;;;;;;;;;;;;;27.45;15.48;100297.41;5074330;28;20367;-75
2022/05/24 10:00:20;;;;;;;;;;;;;;;27.51;15.44;100307.19;5074903;28;19999;-76
2022/05/24 10:02:46;;;;;;;;;;;;;;;27.50;15.64;100297.31;5075977;28;19923;-75
2022/05/24 10:05:21;;;;;;;;;;;;;;;27.49;15.79;100294.88;5075478;28;20370;-75
2022/05/24 10:07:54;;;;;;;;;;;;;;;27.54;15.64;100312.06;5076374;28;19970;-74
2022/05/24 10:10:21;;;;;;;;;;;;;;;27.59;15.44;100302.09;5074420;28;19916;-74
2022/05/24 10:13:25;;;;;;;;;;;;;;;27.48;15.64;100294.06;5074589;28;19916;-74
2022/05/24 10:16:11;;;;;;;;;;;;;;;27.66;15.41;100303.31;5053198;28;19920;-74
2022/05/24 10:18:36;;;;;;;;;;;;;;;27.60;15.29;100293.56;5036430;28;19921;-75
2022/05/24 10:21:11;;;;;;;;;;;;;;;27.64;15.46;100296.50;5053480;28;19952;-75
2022/05/24 10:23:42;;;;;;;;;;;;;;;27.69;15.24;100294.47;5053385;28;19925;-74
2022/05/24 10:26:16;;;;;;;;;;;;;;;27.73;15.18;100291.94;5053325;28;19921;-72
2022/05/24 10:28:59;;;;;;;;;;;;;;;27.68;15.32;100284.63;5052867;28;20023;-71
2022/05/24 10:31:43;;;;;;;;;;;;;;;27.63;15.32;100287.47;5052551;28;19924;-72
2022/05/24 10:39:46;;;;;;;;;;;;;;;27.64;15.27;100296.50;5052568;28;20314;-71
2022/05/24 10:42:22;;;;;;;;;;;;;;;27.65;15.25;100296.22;5052179;28;19920;-72
2022/05/24 10:44:50;;;;;;;;;;;;;;;27.66;15.17;100288.78;5035754;28;19947;-72
2022/05/24 10:47:31;;;;;;;;;;;;;;;27.71;15.29;100294.97;5056141;28;19921;-72
2022/05/24 10:50:26;;;;;;;;;;;;;;;27.71;15.24;100288.69;5054036;28;19975;-70
2022/05/24 10:52:55;;;;;;;;;;;;;;;27.51;15.45;100277.00;5031957;28;19929;-71
2022/05/24 10:55:22;;;;;;;;;;;;;;;27.64;15.43;100277.28;5015416;28;19921;-71
2022/05/24 10:57:56;;;;;;;;;;;;;;;27.75;15.33;100277.91;5015524;28;19917;-71
2022/05/24 11:00:26;;;;;;;;;;;;;;;27.70;15.29;100270.59;5015687;28;19917;-71
2022/05/24 11:03:07;;;;;;;;;;;;;;;27.76;15.16;100285.84;5015666;28;19944;-70
2022/05/24 11:05:36;;;;;;;;;;;;;;;27.76;15.16;100288.56;5015666;28;19924;-70
2022/05/24 11:08:04;;;;;;;;;;;;;;;27.66;15.30;100283.28;5015253;28;20014;-69
2022/05/24 11:10:33;;;;;;;;;;;;;;;27.68;15.35;100289.28;5031740;28;19991;-70
2022/05/24 11:13:10;;;;;;;;;;;;;;;27.66;15.05;100278.59;5015290;28;19928;-68
2022/05/24 11:15:43;;;;;;;;;;;;;;;27.71;15.24;100272.22;5031763;28;20403;-68
2022/05/24 11:18:21;;;;;;;;;;;;;;;27.75;15.10;100277.91;5015947;28;20064;-68
2022/05/24 11:20:56;;;;;;;;;;;;;;;27.76;15.02;100274.03;5031772;28;19917;-67
2022/05/24 11:23:23;;;;;;;;;;;;;;;27.77;14.96;100281.97;5035531;28;19928;-69
2022/05/24 11:25:53;;;;;;;;;;;;;;;27.76;15.01;100277.59;5051756;28;19936;-68
2022/05/24 11:28:21;;;;;;;;;;;;;;;27.69;15.15;100269.75;5054189;28;19916;-68
2022/05/24 11:30:47;;;;;;;;;;;;;;;27.71;15.13;100266.72;5073940;28;19923;-67
2022/05/24 11:33:14;;;;;;;;;;;;;;;27.71;15.06;100267.53;5071628;28;19916;-68
2022/05/24 11:35:43;;;;;;;;;;;;;;;27.62;15.00;100266.63;5072397;28;20386;-68
2022/05/24 11:38:22;;;;;;;;;;;;;;;27.69;15.09;100266.22;5073700;28;20079;-68
2022/05/24 11:40:47;;;;;;;;;;;;;;;27.75;14.86;100267.72;5072404;28;19917;-69
2022/05/24 11:43:31;;;;;;;;;;;;;;;27.75;15.02;100273.22;5073764;28;19923;-69
2022/05/24 11:46:04;;;;;;;;;;;;;;;27.66;14.94;100273.13;5074494;28;19916;-68
2022/05/24 11:48:39;;;;;;;;;;;;;;;27.48;15.27;100274.84;5093835;28;19916;-69
2022/05/24 11:51:44;;;;;;;;;;;;;;;27.37;15.44;100278.09;5093922;28;19917;-68
2022/05/24 11:54:18;;;;;;;;;;;;;;;27.12;15.74;100270.00;5071613;28;19917;-69
2022/05/24 11:56:53;;;;;;;;;;;;;;;27.20;15.68;100273.97;5054719;28;20007;-69
2022/05/24 11:59:37;;;;;;;;;;;;;;;27.59;15.27;100278.19;5054851;28;19916;-69
2022/05/24 12:02:02;;;;;;;;;;;;;;;27.34;15.49;100268.53;5071830;28;19917;-69
2022/05/24 12:09:58;;;;;;;;;;;;;;;26.95;15.61;100272.50;5071667;28;20110;-69
2022/05/24 12:12:31;;;;;;;;;;;;;;;27.15;15.46;100261.16;5071580;28;20411;-69
2022/05/24 12:15:05;;;;;;;;;;;;;;;27.28;15.35;100264.25;5071356;28;19920;-68
2022/05/24 12:17:30;;;;;;;;;;;;;;;26.89;15.94;100257.22;5071403;28;20317;-67
2022/05/24 12:19:56;;;;;;;;;;;;;;;27.00;15.75;100261.44;5054654;28;19917;-68
2022/05/24 12:22:22;;;;;;;;;;;;;;;26.93;15.95;100264.56;5071297;28;19921;-68
2022/05/24 12:24:49;;;;;;;;;;;;;;;27.17;15.44;100261.66;5081430;28;20286;-69
2022/05/24 12:27:16;;;;;;;;;;;;;;;27.13;15.32;100259.81;5093455;28;20293;-68
2022/05/24 12:29:41;;;;;;;;;;;;;;;27.09;15.34;100265.09;5092399;28;20302;-69
2022/05/24 12:32:07;;;;;;;;;;;;;;;27.17;15.31;100263.59;5092165;28;19916;-69
2022/05/24 12:34:32;;;;;;;;;;;;;;;27.40;15.17;100267.31;5093316;28;20010;-71
2022/05/24 12:36:58;;;;;;;;;;;;;;;27.40;15.06;100270.06;5093363;28;19916;-70
2022/05/24 12:39:25;;;;;;;;;;;;;;;27.33;15.04;100267.72;5092442;28;19986;-71
2022/05/24 12:41:58;;;;;;;;;;;;;;;27.22;15.12;100260.78;5093722;28;20297;-71
2022/05/24 12:44:28;;;;;;;;;;;;;;;27.17;15.40;100256.19;5092269;28;20412;-71
2022/05/24 12:46:54;;;;;;;;;;;;;;;27.13;15.28;100257.91;5089359;28;20428;-71
2022/05/24 12:49:23;;;;;;;;;;;;;;;26.96;15.64;100258.47;5077613;28;20305;-71
2022/05/24 12:51:52;;;;;;;;;;;;;;;26.98;15.51;100255.44;5077463;28;19939;-71
2022/05/24 12:54:27;;;;;;;;;;;;;;;26.98;15.56;100255.44;5075912;28;20376;-71
2022/05/24 12:56:53;;;;;;;;;;;;;;;26.92;15.76;100268.44;5077303;28;19940;-71
2022/05/24 12:59:18;;;;;;;;;;;;;;;26.81;15.74;100258.75;5077357;28;19920;-70
2022/05/24 13:01:43;;;;;;;;;;;;;;;26.89;15.53;100252.56;5076220;28;20007;-71
2022/05/24 13:04:24;;;;;;;;;;;;;;;26.92;15.55;100259.38;5077316;28;19920;-70
2022/05/24 13:06:49;;;;;;;;;;;;;;;26.88;15.45;100261.09;5076627;28;19965;-71
2022/05/24 13:09:15;;;;;;;;;;;;;;;26.92;15.78;100256.63;5075724;28;19917;-71
2022/05/24 13:11:40;;;;;;;;;;;;;;;26.88;15.42;100250.13;5076950;28;20340;-70
2022/05/24 13:14:05;;;;;;;;;;;;;;;27.01;15.25;100254.00;5075861;28;19916;-70
2022/05/24 13:16:31;;;;;;;;;;;;;;;27.00;15.37;100253.19;5075769;28;19920;-70
2022/05/24 13:18:57;;;;;;;;;;;;;;;27.04;15.15;100253.41;5075454;28;20375;-70
2022/05/24 13:21:23;;;;;;;;;;;;;;;27.04;15.34;100247.94;5076931;28;19922;-70